Time;durP1;ratioP1;P1;durP2;ratioP2;P2;SDS_P1;SDS_P2;PMS_P1;PMS_P2;Temp;Humidity;BMP_temperature;BMP_pressure;BME280_temperature;BME280_humidity;BME280_pressure;Samples;Min_cycle;Max_cycle;Signal;HPM_P1;HPM_P2
2022/06/01 00:02:08;;;;;;;12.65;10.57;;;14.30;74.70;;;;;;5049032;28;20465;-65
2022/06/01 00:04:34;;;;;;;13.35;10.95;;;14.20;74.70;;;;;;5045353;28;20029;-66
2022/06/01 00:07:00;;;;;;;13.45;10.98;;;14.20;74.70;;;;;;5049813;28;20033;-65
2022/06/01 00:09:26;;;;;;;13.80;11.52;;;14.20;74.70;;;;;;5047323;28;20084;-66
2022/06/01 00:11:51;;;;;;;14.32;11.50;;;14.20;74.70;;;;;;5042935;28;20025;-66
2022/06/01 00:14:17;;;;;;;13.93;11.55;;;14.20;74.80;;;;;;5049954;28;20029;-65
2022/06/01 00:16:43;;;;;;;13.98;12.20;;;14.20;74.80;;;;;;5054431;28;20033;-65
2022/06/01 00:19:10;;;;;;;13.93;11.27;;;14.10;74.80;;;;;;5048741;28;20374;-65
2022/06/01 00:22:11;;;;;;;13.18;11.73;;;14.10;74.90;;;;;;5047560;28;20037;-65
2022/06/01 00:24:22;;;;;;;14.75;12.23;;;14.10;74.90;;;;;;5041008;28;20104;-65
2022/06/01 00:26:50;;;;;;;16.23;11.95;;;14.10;74.90;;;;;;5054907;28;20389;-65
2022/06/01 00:29:17;;;;;;;14.25;12.05;;;14.10;75.00;;;;;;5044875;28;20084;-65
2022/06/01 00:31:43;;;;;;;13.43;11.63;;;14.10;75.10;;;;;;5053560;28;20028;-65
2022/06/01 00:34:09;;;;;;;14.70;12.63;;;14.10;75.10;;;;;;5046313;28;20053;-65
2022/06/01 00:36:34;;;;;;;14.15;11.98;;;14.10;75.10;;;;;;5049962;28;20461;-65
2022/06/01 00:39:00;;;;;;;13.90;12.43;;;14.10;75.10;;;;;;5050172;28;20063;-65
2022/06/01 00:41:29;;;;;;;15.57;13.27;;;14.00;75.00;;;;;;5053214;28;20044;-65
2022/06/01 00:43:56;;;;;;;13.85;12.38;;;14.10;75.10;;;;;;5056236;28;20047;-65
2022/06/01 00:46:22;;;;;;;15.38;11.82;;;14.10;75.10;;;;;;5035509;28;20106;-65
2022/06/01 00:48:52;;;;;;;14.68;12.68;;;14.10;75.10;;;;;;5049441;28;20045;-65
2022/06/01 00:51:23;;;;;;;14.20;12.13;;;14.10;75.10;;;;;;5048482;28;20064;-65
2022/06/01 00:53:51;;;;;;;14.32;12.25;;;14.10;75.10;;;;;;5043928;28;20025;-65
2022/06/01 00:56:21;;;;;;;13.68;12.23;;;14.00;75.10;;;;;;5050255;28;20025;-65
2022/06/01 00:58:51;;;;;;;13.90;12.30;;;14.10;75.20;;;;;;5049926;28;20033;-65
2022/06/01 01:01:20;;;;;;;14.55;12.57;;;14.00;75.10;;;;;;5046197;28;20182;-65
2022/06/01 01:03:52;;;;;;;14.32;12.43;;;14.00;75.10;;;;;;5051737;28;20052;-65
2022/06/01 01:06:21;;;;;;;14.07;12.55;;;14.10;75.20;;;;;;5045254;28;20041;-65
2022/06/01 01:08:48;;;;;;;14.63;12.07;;;14.00;75.20;;;;;;5049612;28;20511;-65
2022/06/01 01:11:15;;;;;;;15.35;12.98;;;14.00;75.20;;;;;;5047561;28;20074;-66
2022/06/01 01:13:45;;;;;;;14.60;12.60;;;14.00;75.30;;;;;;5049821;28;20439;-66
2022/06/01 01:16:12;;;;;;;15.50;12.57;;;14.00;75.30;;;;;;5056062;28;20021;-65
2022/06/01 01:18:41;;;;;;;15.10;13.05;;;14.10;75.30;;;;;;5046235;28;20056;-65
2022/06/01 01:21:28;;;;;;;15.10;13.13;;;14.00;75.30;;;;;;5041887;28;20350;-66
2022/06/01 01:24:23;;;;;;;15.02;12.75;;;14.00;75.40;;;;;;5045591;28;20056;-65
2022/06/01 01:26:51;;;;;;;14.00;12.50;;;14.00;75.40;;;;;;5055175;28;20036;-65
2022/06/01 01:29:31;;;;;;;16.15;13.63;;;14.00;75.50;;;;;;5044720;28;20154;-66
2022/06/01 01:31:56;;;;;;;15.68;13.70;;;14.00;75.70;;;;;;5054535;28;20021;-65
2022/06/01 01:34:22;;;;;;;15.13;13.27;;;13.90;75.60;;;;;;5045600;28;20055;-66
2022/06/01 01:36:52;;;;;;;16.88;14.38;;;13.90;75.70;;;;;;5054420;28;20021;-65
2022/06/01 01:39:18;;;;;;;15.95;13.13;;;13.90;75.70;;;;;;5048593;28;20025;-65
2022/06/01 01:41:49;;;;;;;16.55;13.77;;;13.90;75.80;;;;;;5052301;28;20464;-65
2022/06/01 01:44:17;;;;;;;16.48;13.98;;;13.90;76.00;;;;;;5045953;28;20039;-66
2022/06/01 01:46:47;;;;;;;17.48;13.88;;;13.90;76.10;;;;;;5055671;28;20124;-65
2022/06/01 01:49:19;;;;;;;17.08;14.23;;;13.90;76.30;;;;;;5043001;28;20025;-66
2022/06/01 01:51:44;;;;;;;14.95;13.10;;;13.90;76.30;;;;;;5052187;28;20036;-65
2022/06/01 01:54:59;;;;;;;19.30;13.88;;;13.90;76.30;;;;;;5046953;28;20025;-65
2022/06/01 01:57:40;;;;;;;15.07;12.27;;;13.90;76.30;;;;;;5046991;28;20408;-65
2022/06/01 02:00:14;;;;;;;15.68;13.02;;;13.80;76.40;;;;;;5020893;28;20124;-65
2022/06/01 02:02:55;;;;;;;14.93;12.43;;;13.80;76.40;;;;;;5035983;28;20037;-65
2022/06/01 02:08:32;;;;;;;15.45;12.80;;;13.90;76.50;;;;;;5039810;28;20470;-65
2022/06/01 02:13:52;;;;;;;15.57;13.05;;;13.90;76.50;;;;;;5051198;28;20393;-66
2022/06/01 02:16:18;;;;;;;14.82;12.27;;;13.80;76.40;;;;;;5055209;28;20025;-65
2022/06/01 02:18:49;;;;;;;15.32;13.60;;;13.80;76.50;;;;;;5047122;28;20041;-66
2022/06/01 02:21:24;;;;;;;16.65;12.95;;;13.80;76.60;;;;;;5054409;28;20028;-65
2022/06/01 02:23:50;;;;;;;15.23;12.52;;;13.80;76.70;;;;;;5049564;28;20096;-65
2022/06/01 02:26:18;;;;;;;12.50;10.93;;;13.80;76.70;;;;;;5054773;28;20032;-65
2022/06/01 02:28:46;;;;;;;13.57;10.82;;;13.80;76.70;;;;;;5048721;28;20029;-65
2022/06/01 02:31:13;;;;;;;14.02;11.20;;;13.80;76.80;;;;;;5039878;28;20044;-65
2022/06/01 02:33:41;;;;;;;13.55;10.55;;;13.80;76.70;;;;;;5047997;28;20393;-65
2022/06/01 02:36:08;;;;;;;12.55;10.30;;;13.80;76.80;;;;;;5054639;28;20354;-65
2022/06/01 02:38:42;;;;;;;11.32;8.65;;;13.80;76.80;;;;;;5047468;28;20037;-65
2022/06/01 02:42:25;;;;;;;10.75;7.25;;;13.80;76.60;;;;;;5038097;28;20033;-65
2022/06/01 02:43:53;;;;;;;10.75;7.43;;;13.80;76.60;;;;;;5037781;28;20055;-66
2022/06/01 02:46:19;;;;;;;10.02;7.43;;;13.80;76.60;;;;;;5038915;28;20025;-66
2022/06/01 02:48:46;;;;;;;10.90;7.68;;;13.70;76.60;;;;;;5040520;28;20108;-66
2022/06/01 02:51:12;;;;;;;10.25;7.28;;;13.70;76.60;;;;;;5053663;28;20025;-66
2022/06/01 02:53:38;;;;;;;9.13;6.63;;;13.70;76.60;;;;;;5036435;28;20091;-66
2022/06/01 02:56:05;;;;;;;10.95;6.47;;;13.70;76.60;;;;;;5041293;28;20028;-66
2022/06/01 02:58:30;;;;;;;10.30;6.68;;;13.70;76.60;;;;;;5052038;28;20029;-66
2022/06/01 03:00:58;;;;;;;9.32;6.30;;;13.70;76.60;;;;;;5038739;28;20438;-65
2022/06/01 03:03:25;;;;;;;8.68;6.05;;;13.70;76.60;;;;;;5041939;28;20374;-66
2022/06/01 03:05:50;;;;;;;9.75;6.32;;;13.70;76.60;;;;;;5045627;28;20020;-66
2022/06/01 03:08:16;;;;;;;9.45;6.20;;;13.70;76.60;;;;;;5042519;28;20458;-66
2022/06/01 03:10:44;;;;;;;8.93;6.15;;;13.70;76.60;;;;;;5045431;28;20029;-66
2022/06/01 03:13:10;;;;;;;9.20;5.97;;;13.60;76.50;;;;;;5040421;28;20060;-66
2022/06/01 03:15:37;;;;;;;9.52;6.05;;;13.60;76.70;;;;;;5039830;28;20090;-66
2022/06/01 03:18:03;;;;;;;11.10;6.55;;;13.60;76.60;;;;;;5046322;28;20446;-66
2022/06/01 03:20:31;;;;;;;9.23;6.55;;;13.60;76.60;;;;;;5034279;28;20406;-66
2022/06/01 03:22:58;;;;;;;9.63;7.00;;;13.60;76.60;;;;;;5042216;28;20040;-66
2022/06/01 03:25:24;;;;;;;9.55;7.03;;;13.60;76.60;;;;;;5050312;28;20333;-66
2022/06/01 03:27:53;;;;;;;11.05;6.88;;;13.60;76.60;;;;;;5045156;28;20021;-66
2022/06/01 03:30:19;;;;;;;9.65;6.63;;;13.60;76.70;;;;;;5038860;28;20077;-66
2022/06/01 03:32:46;;;;;;;10.10;6.70;;;13.60;76.70;;;;;;5047481;28;20053;-66
2022/06/01 03:35:14;;;;;;;12.25;8.00;;;13.50;76.70;;;;;;5037342;28;20026;-66
2022/06/01 03:37:39;;;;;;;10.50;7.10;;;13.60;76.80;;;;;;5043281;28;20446;-66
2022/06/01 03:40:06;;;;;;;10.40;7.40;;;13.50;76.80;;;;;;5036539;28;20033;-66
2022/06/01 03:42:33;;;;;;;10.75;7.05;;;13.50;76.80;;;;;;5044471;28;20073;-66
2022/06/01 03:47:43;;;;;;;10.30;7.72;;;13.50;76.70;;;;;;5043109;28;20065;-66
2022/06/01 03:50:10;;;;;;;12.10;8.30;;;13.50;76.70;;;;;;5046912;28;20128;-66
2022/06/01 03:52:36;;;;;;;10.63;8.40;;;13.50;76.80;;;;;;5044550;28;20033;-66
2022/06/01 03:55:03;;;;;;;11.70;8.25;;;13.50;76.80;;;;;;5037806;28;20030;-66
2022/06/01 03:57:29;;;;;;;11.15;8.18;;;13.50;76.80;;;;;;5028582;28;20032;-66
2022/06/01 03:59:54;;;;;;;12.55;8.00;;;13.50;76.80;;;;;;5057410;28;20096;-66
2022/06/01 04:02:20;;;;;;;9.73;7.43;;;13.50;76.80;;;;;;5057200;28;20470;-66
2022/06/01 04:04:46;;;;;;;13.07;8.57;;;13.50;76.80;;;;;;5054260;28;20450;-66
2022/06/01 04:07:11;;;;;;;10.50;7.80;;;13.50;76.80;;;;;;5055397;28;20426;-64
2022/06/01 04:09:37;;;;;;;10.13;7.65;;;13.50;76.80;;;;;;5051557;28;20132;-64
2022/06/01 04:12:03;;;;;;;10.82;7.47;;;13.50;76.80;;;;;;5045267;28;20114;-64
2022/06/01 04:14:28;;;;;;;10.73;7.43;;;13.50;76.90;;;;;;5046111;28;20059;-64
2022/06/01 04:16:54;;;;;;;11.27;7.90;;;13.50;76.80;;;;;;5048684;28;20029;-65
2022/06/01 04:19:20;;;;;;;10.27;7.85;;;13.50;76.80;;;;;;5044367;28;20032;-65
2022/06/01 04:21:49;;;;;;;10.93;7.95;;;13.50;76.80;;;;;;5047636;28;20438;-65
2022/06/01 04:24:19;;;;;;;11.95;8.20;;;13.50;76.90;;;;;;5045542;28;20061;-65
2022/06/01 04:26:45;;;;;;;11.55;8.13;;;13.50;76.90;;;;;;5051071;28;20446;-65
2022/06/01 04:29:11;;;;;;;11.18;8.20;;;13.50;76.80;;;;;;5045254;28;20029;-65
2022/06/01 04:31:37;;;;;;;11.93;8.00;;;13.50;76.80;;;;;;5047139;28;20044;-65
2022/06/01 04:34:04;;;;;;;12.55;8.82;;;13.50;76.80;;;;;;5040987;28;20409;-64
2022/06/01 04:36:30;;;;;;;11.95;8.93;;;13.60;76.80;;;;;;5038791;28;20021;-65
2022/06/01 04:38:56;;;;;;;11.95;9.10;;;13.60;76.90;;;;;;5038126;28;20033;-65
2022/06/01 04:41:21;;;;;;;14.30;10.73;;;13.60;76.80;;;;;;5040790;28;20454;-65
2022/06/01 04:43:47;;;;;;;12.70;10.63;;;13.70;76.80;;;;;;5047870;28;20037;-65
2022/06/01 04:46:13;;;;;;;17.13;12.43;;;13.80;76.80;;;;;;5045343;28;20033;-65
2022/06/01 04:48:38;;;;;;;17.15;14.05;;;13.80;76.70;;;;;;5043593;28;20071;-65
2022/06/01 04:51:05;;;;;;;15.27;13.27;;;13.80;76.70;;;;;;5056973;28;20035;-65
2022/06/01 04:53:31;;;;;;;17.17;13.57;;;13.90;76.70;;;;;;5046731;28;20427;-64
2022/06/01 04:55:56;;;;;;;17.40;13.82;;;13.90;76.70;;;;;;5053315;28;20112;-65
2022/06/01 04:58:22;;;;;;;18.17;15.38;;;13.90;76.60;;;;;;5056772;28;20040;-65
2022/06/01 05:00:49;;;;;;;17.65;15.27;;;14.00;76.60;;;;;;5049184;28;20040;-65
2022/06/01 05:03:15;;;;;;;19.90;16.88;;;14.00;76.50;;;;;;5036886;28;20037;-65
2022/06/01 05:05:42;;;;;;;17.05;15.25;;;14.00;76.50;;;;;;5056384;28;20037;-66
2022/06/01 05:08:12;;;;;;;17.85;14.70;;;14.10;76.50;;;;;;5047871;28;20065;-65
2022/06/01 05:10:38;;;;;;;18.35;15.82;;;14.10;76.40;;;;;;5053955;28;20029;-65
2022/06/01 05:13:04;;;;;;;17.27;14.90;;;14.20;76.30;;;;;;5056608;28;20095;-65
2022/06/01 05:15:29;;;;;;;17.75;15.52;;;14.20;76.30;;;;;;5052730;28;20017;-65
2022/06/01 05:17:55;;;;;;;17.00;13.88;;;14.20;76.30;;;;;;5040855;28;20045;-66
2022/06/01 05:20:21;;;;;;;18.00;15.23;;;14.10;76.40;;;;;;5051182;28;20029;-65
2022/06/01 05:22:46;;;;;;;18.75;15.38;;;14.20;76.50;;;;;;5049403;28;20063;-65
2022/06/01 05:25:12;;;;;;;16.58;14.38;;;14.10;76.50;;;;;;5042361;28;20021;-64
2022/06/01 05:27:38;;;;;;;17.08;14.77;;;14.10;76.60;;;;;;5056393;28;20029;-65
2022/06/01 05:30:06;;;;;;;19.80;15.75;;;14.10;76.60;;;;;;5048206;28;20112;-64
2022/06/01 05:32:31;;;;;;;18.08;14.77;;;14.10;76.50;;;;;;5045608;28;20174;-65
2022/06/01 05:34:58;;;;;;;17.85;14.82;;;14.10;76.60;;;;;;5049205;28;20501;-64
2022/06/01 05:37:23;;;;;;;17.85;15.30;;;14.10;76.60;;;;;;5047647;28;20053;-64
2022/06/01 05:39:49;;;;;;;16.67;14.35;;;14.20;76.60;;;;;;5050921;28;20068;-64
2022/06/01 05:42:15;;;;;;;16.70;14.05;;;14.30;76.30;;;;;;5055068;28;20043;-65
2022/06/01 05:44:40;;;;;;;17.27;14.45;;;14.50;75.90;;;;;;5046758;28;20033;-64
2022/06/01 05:47:06;;;;;;;16.73;13.43;;;14.70;75.50;;;;;;5049565;28;20032;-64
2022/06/01 05:49:32;;;;;;;15.77;12.75;;;14.80;75.20;;;;;;5045050;28;20033;-65
2022/06/01 05:51:58;;;;;;;18.10;13.55;;;14.90;74.80;;;;;;5050464;28;20044;-65
2022/06/01 05:54:24;;;;;;;17.90;13.82;;;15.10;74.60;;;;;;5048665;28;20021;-65
2022/06/01 05:56:49;;;;;;;16.10;12.80;;;15.10;74.30;;;;;;5053391;28;20020;-65
2022/06/01 05:59:16;;;;;;;14.80;12.00;;;15.30;74.10;;;;;;5049745;28;20043;-65
2022/06/01 06:01:41;;;;;;;15.07;11.95;;;15.30;73.80;;;;;;5042421;28;20119;-65
2022/06/01 06:04:07;;;;;;;15.25;12.32;;;15.50;73.70;;;;;;5049639;28;20109;-65
2022/06/01 06:06:34;;;;;;;14.70;11.60;;;15.60;73.50;;;;;;5035081;28;20033;-65
2022/06/01 06:09:03;;;;;;;13.05;10.60;;;15.70;73.20;;;;;;5030180;28;20373;-65
2022/06/01 06:11:35;;;;;;;14.40;11.18;;;15.90;73.00;;;;;;5046229;28;20075;-63
2022/06/01 06:14:02;;;;;;;13.80;10.93;;;16.00;72.50;;;;;;5043725;28;20056;-64
2022/06/01 06:16:30;;;;;;;14.63;9.85;;;16.10;72.30;;;;;;5051603;28;20033;-63
2022/06/01 06:18:56;;;;;;;12.23;9.13;;;16.10;71.90;;;;;;5051771;28;20458;-64
2022/06/01 06:21:28;;;;;;;12.32;8.55;;;16.20;71.70;;;;;;5036810;28;20032;-64
2022/06/01 06:23:58;;;;;;;10.45;7.82;;;16.30;71.40;;;;;;5040366;28;20057;-64
2022/06/01 06:26:24;;;;;;;11.10;8.25;;;16.40;71.20;;;;;;5043677;28;20036;-64
2022/06/01 06:28:50;;;;;;;11.07;8.00;;;16.50;70.80;;;;;;5036489;28;20029;-63
2022/06/01 06:31:15;;;;;;;12.43;8.20;;;16.40;70.70;;;;;;5044268;28;20029;-63
2022/06/01 06:33:41;;;;;;;13.52;8.05;;;16.50;70.60;;;;;;5049121;28;20025;-64
2022/06/01 06:36:08;;;;;;;11.75;8.18;;;16.60;70.20;;;;;;5024433;28;20441;-64
2022/06/01 06:38:36;;;;;;;9.75;7.50;;;16.80;69.80;;;;;;5045176;28;20024;-64
2022/06/01 06:41:03;;;;;;;12.80;7.65;;;17.00;69.30;;;;;;5039176;28;20542;-64
2022/06/01 06:43:30;;;;;;;10.63;7.93;;;17.00;68.80;;;;;;5047522;28;20231;-64
2022/06/01 06:45:59;;;;;;;11.02;7.40;;;17.10;68.40;;;;;;5043287;28;20474;-63
2022/06/01 06:48:25;;;;;;;11.48;8.10;;;17.20;68.20;;;;;;5046174;28;20484;-63
2022/06/01 06:50:51;;;;;;;11.43;8.20;;;17.30;68.00;;;;;;5046526;28;20080;-63
2022/06/01 06:53:17;;;;;;;9.52;7.28;;;17.40;67.80;;;;;;5045150;28;20447;-63
2022/06/01 06:55:43;;;;;;;10.02;7.13;;;17.50;67.40;;;;;;5046429;28;20033;-63
2022/06/01 06:58:09;;;;;;;9.15;7.05;;;17.70;67.20;;;;;;5037159;28;20026;-63
2022/06/01 07:00:35;;;;;;;10.23;7.15;;;17.80;66.90;;;;;;5043570;28;20466;-63
2022/06/01 07:03:01;;;;;;;10.40;7.30;;;18.00;66.60;;;;;;5046737;28;20033;-63
2022/06/01 07:06:09;;;;;;;11.38;7.30;;;18.10;66.20;;;;;;5043302;28;20025;-63
2022/06/01 07:08:16;;;;;;;10.52;6.53;;;18.20;65.90;;;;;;5043513;28;20082;-63
2022/06/01 07:10:42;;;;;;;8.43;6.15;;;18.30;65.60;;;;;;5043046;28;20017;-63
2022/06/01 07:13:08;;;;;;;9.40;6.50;;;18.30;65.40;;;;;;5038789;28;20660;-63
2022/06/01 07:15:33;;;;;;;7.82;5.35;;;18.30;65.00;;;;;;5044108;28;20124;-64
2022/06/01 07:17:59;;;;;;;8.85;5.95;;;18.20;65.00;;;;;;5043117;28;20029;-63
2022/06/01 07:20:25;;;;;;;8.73;5.80;;;18.20;64.90;;;;;;5041861;28;20029;-63
2022/06/01 07:22:50;;;;;;;9.90;5.45;;;18.10;64.90;;;;;;5046193;28;20033;-66
2022/06/01 07:25:16;;;;;;;8.63;5.53;;;17.90;65.30;;;;;;5047326;28;20017;-67
2022/06/01 07:27:42;;;;;;;8.35;5.38;;;17.80;65.80;;;;;;5024986;28;20025;-67
2022/06/01 07:30:10;;;;;;;8.63;5.68;;;17.70;66.10;;;;;;5046583;28;20074;-68
2022/06/01 07:32:36;;;;;;;9.15;5.70;;;17.70;65.90;;;;;;5047377;28;20028;-67
2022/06/01 07:35:03;;;;;;;7.85;4.30;;;17.70;66.10;;;;;;5056424;28;20075;-68
2022/06/01 07:43:07;;;;;;;7.63;4.50;;;17.60;65.80;;;;;;5043233;28;20045;-67
2022/06/01 07:45:38;;;;;;;7.78;4.75;;;17.40;66.20;;;;;;5055638;28;20029;-68
2022/06/01 07:48:05;;;;;;;7.30;4.53;;;17.20;66.80;;;;;;5043549;28;20034;-68
2022/06/01 07:50:31;;;;;;;13.63;8.98;;;17.10;67.30;;;;;;5042705;28;20036;-68
2022/06/01 07:52:58;;;;;;;11.40;7.82;;;17.10;67.60;;;;;;5042317;28;20450;-68
2022/06/01 07:55:24;;;;;;;13.07;9.43;;;17.40;67.00;;;;;;5041106;28;20127;-67
2022/06/01 07:57:50;;;;;;;10.85;6.47;;;17.60;66.00;;;;;;5052683;28;20017;-68
2022/06/01 08:00:16;;;;;;;9.18;4.97;;;17.50;65.30;;;;;;5042382;28;20037;-69
2022/06/01 08:02:43;;;;;;;31.83;28.27;;;17.70;65.00;;;;;;5037795;28;20086;-67
2022/06/01 08:05:11;;;;;;;29.02;25.90;;;18.20;64.40;;;;;;5048925;28;20035;-67
2022/06/01 08:07:36;;;;;;;16.83;14.63;;;18.60;63.00;;;;;;5047679;28;20064;-68
2022/06/01 08:10:04;;;;;;;10.73;8.15;;;18.80;62.30;;;;;;5040711;28;20469;-67
2022/06/01 08:15:15;;;;;;;7.82;4.72;;;19.40;60.80;;;;;;5062076;28;20036;-67
2022/06/01 08:17:44;;;;;;;7.85;4.07;;;19.60;60.00;;;;;;5046702;28;20024;-67
2022/06/01 08:20:12;;;;;;;6.97;4.07;;;19.50;59.90;;;;;;5048259;28;20036;-68
2022/06/01 08:22:39;;;;;;;7.75;3.95;;;19.10;60.30;;;;;;5054996;28;20037;-68
2022/06/01 08:25:10;;;;;;;7.00;3.92;;;18.70;61.00;;;;;;5053128;28;20029;-69
2022/06/01 08:27:36;;;;;;;7.28;3.92;;;18.60;61.70;;;;;;5053916;28;20056;-71
2022/06/01 08:30:01;;;;;;;7.22;3.80;;;18.60;61.70;;;;;;5034986;28;20430;-70
2022/06/01 08:32:27;;;;;;;6.57;3.50;;;18.80;61.10;;;;;;5056377;28;20025;-69
2022/06/01 08:34:53;;;;;;;7.15;3.40;;;19.20;60.00;;;;;;5050843;28;20032;-70
2022/06/01 08:37:18;;;;;;;6.28;2.80;;;19.20;59.30;;;;;;5056626;28;20113;-70
2022/06/01 08:39:44;;;;;;;7.60;3.25;;;18.90;59.30;;;;;;5050951;28;20031;-70
2022/06/01 08:42:16;;;;;;;8.25;3.08;;;18.90;59.50;;;;;;5049663;28;20052;-70
2022/06/01 08:44:45;;;;;;;5.47;2.58;;;19.20;59.00;;;;;;5046389;28;20033;-70
2022/06/01 08:47:40;;;;;;;7.95;3.67;;;19.50;58.30;;;;;;5052908;28;20111;-70
2022/06/01 08:50:17;;;;;;;7.15;2.75;;;19.90;57.20;;;;;;5045342;28;20355;-70
2022/06/01 08:52:43;;;;;;;5.47;2.58;;;20.30;57.00;;;;;;5051935;28;20085;-70
2022/06/01 08:55:09;;;;;;;5.32;2.42;;;20.70;56.60;;;;;;5029142;28;20013;-70
2022/06/01 08:58:06;;;;;;;6.13;3.05;;;20.90;56.10;;;;;;5056834;28;20454;-73
2022/06/01 09:00:48;;;;;;;5.38;2.78;;;21.00;55.00;;;;;;5052893;28;20063;-68
2022/06/01 09:03:34;;;;;;;9.45;2.83;;;21.20;55.10;;;;;;5051384;28;20060;-68
2022/06/01 09:06:13;;;;;;;4.97;2.53;;;21.50;54.50;;;;;;5042876;28;20108;-68
2022/06/01 09:08:54;;;;;;;5.70;2.70;;;21.80;53.90;;;;;;5047610;28;20045;-68
2022/06/01 09:11:35;;;;;;;5.38;2.63;;;22.00;53.00;;;;;;5036233;28;20472;-68
2022/06/01 09:14:15;;;;;;;4.80;2.28;;;22.10;52.50;;;;;;5022969;28;20021;-69
2022/06/01 09:16:47;;;;;;;5.72;2.33;;;21.70;52.90;;;;;;5046787;28;20044;-68
2022/06/01 09:19:26;;;;;;;6.47;2.47;;;21.20;53.50;;;;;;5036330;28;20468;-69
2022/06/01 09:24:51;;;;;;;5.13;2.22;;;20.40;54.10;;;;;;5047391;28;20029;-64
2022/06/01 09:27:17;;;;;;;5.60;2.30;;;20.30;54.40;;;;;;5055963;28;20071;-64
2022/06/01 09:29:52;;;;;;;6.43;2.40;;;20.40;54.20;;;;;;5049516;28;20033;-64
2022/06/01 09:32:29;;;;;;;6.65;2.92;;;20.30;53.90;;;;;;5043654;28;20026;-64
2022/06/01 09:35:00;;;;;;;5.03;2.42;;;20.00;54.20;;;;;;5040828;28;20031;-63
2022/06/01 09:37:47;;;;;;;6.68;3.08;;;19.70;54.40;;;;;;5054797;28;20028;-64
2022/06/01 09:40:28;;;;;;;7.15;2.92;;;19.40;54.80;;;;;;5045980;28;20036;-64
2022/06/01 09:42:55;;;;;;;6.13;2.97;;;19.20;55.30;;;;;;5021414;28;20037;-64
2022/06/01 09:45:42;;;;;;;5.20;2.80;;;19.30;55.50;;;;;;5037694;28;20025;-64
2022/06/01 09:48:29;;;;;;;6.88;3.30;;;19.60;55.10;;;;;;5039054;28;20112;-64
2022/06/01 09:51:21;;;;;;;6.78;3.13;;;19.80;54.80;;;;;;5043697;28;20107;-64
2022/06/01 09:54:12;;;;;;;7.00;3.17;;;19.90;54.50;;;;;;5053210;28;20021;-63
2022/06/01 09:56:45;;;;;;;6.47;3.28;;;19.80;54.50;;;;;;5045676;28;20442;-63
2022/06/01 10:08:08;;;;;;;5.40;2.60;;;18.80;55.80;;;;;;5047029;28;20477;-65
2022/06/01 10:10:35;;;;;;;4.10;2.25;;;18.60;56.60;;;;;;5030768;28;20040;-64
2022/06/01 10:13:02;;;;;;;5.25;2.22;;;18.40;56.80;;;;;;5045076;28;20025;-64
2022/06/01 10:15:46;;;;;;;5.22;2.60;;;18.70;56.80;;;;;;5051913;28;20033;-65
2022/06/01 10:18:26;;;;;;;5.78;2.80;;;19.10;56.30;;;;;;5040450;28;20051;-64
2022/06/01 10:21:11;;;;;;;5.53;2.63;;;19.80;55.30;;;;;;5033202;28;20033;-64
2022/06/01 10:24:07;;;;;;;4.25;2.15;;;20.40;54.20;;;;;;5033973;28;20025;-64
2022/06/01 10:26:38;;;;;;;5.25;2.13;;;20.70;52.90;;;;;;5045232;28;20041;-65
2022/06/01 10:29:14;;;;;;;4.80;2.22;;;21.00;52.20;;;;;;5019584;28;20040;-64
2022/06/01 10:31:48;;;;;;;5.88;2.67;;;21.20;51.90;;;;;;5034453;28;20072;-64
2022/06/01 10:34:17;;;;;;;5.13;2.80;;;21.40;51.10;;;;;;5030493;28;20033;-64
2022/06/01 10:37:04;;;;;;;5.63;2.30;;;21.60;50.80;;;;;;5041217;28;20052;-65
2022/06/01 10:39:38;;;;;;;5.57;2.60;;;21.60;50.20;;;;;;5037276;28;20443;-64
2022/06/01 10:42:21;;;;;;;5.40;2.53;;;21.70;49.30;;;;;;5032834;28;20065;-64
2022/06/01 10:45:08;;;;;;;5.40;2.83;;;21.80;49.30;;;;;;5035526;28;20033;-65
2022/06/01 10:48:04;;;;;;;5.65;2.42;;;21.50;49.20;;;;;;5036816;28;20072;-64
2022/06/01 10:50:38;;;;;;;5.72;2.40;;;21.20;49.40;;;;;;5035185;28;20033;-64
2022/06/01 10:53:35;;;;;;;5.53;2.63;;;21.00;49.80;;;;;;5050008;28;20327;-64
2022/06/01 10:56:01;;;;;;;5.65;2.25;;;20.60;50.00;;;;;;5041417;28;20025;-64
2022/06/01 10:58:29;;;;;;;6.10;2.95;;;20.30;50.90;;;;;;5042694;28;20327;-64
2022/06/01 11:01:27;;;;;;;5.60;2.80;;;20.00;51.90;;;;;;5053887;28;20037;-64
2022/06/01 11:04:23;;;;;;;5.07;3.03;;;19.80;51.90;;;;;;5050014;28;21058;-64
2022/06/01 11:07:10;;;;;;;5.50;2.85;;;19.40;52.80;;;;;;5040136;28;20037;-63
2022/06/01 11:09:40;;;;;;;6.45;2.65;;;19.10;53.60;;;;;;5042171;28;20045;-63
2022/06/01 11:12:30;;;;;;;4.60;2.20;;;18.90;54.30;;;;;;5027258;28;20093;-62
2022/06/01 11:15:14;;;;;;;7.22;2.58;;;18.70;54.60;;;;;;5037863;28;20026;-63
2022/06/01 11:18:03;;;;;;;6.07;2.50;;;18.70;54.90;;;;;;5053513;28;20102;-62
2022/06/01 11:20:37;;;;;;;3.90;2.00;;;18.80;54.90;;;;;;5050410;28;20044;-63
2022/06/01 11:23:24;;;;;;;3.53;1.75;;;19.10;54.00;;;;;;5041355;28;20025;-63
2022/06/01 11:26:03;;;;;;;2.58;1.40;;;19.30;53.40;;;;;;5054519;28;20342;-63
2022/06/01 11:28:50;;;;;;;2.90;1.45;;;19.30;53.20;;;;;;5054094;28;20446;-63
2022/06/01 11:31:22;;;;;;;3.38;1.58;;;19.40;52.70;;;;;;5054428;28;20025;-62
2022/06/01 11:34:10;;;;;;;4.20;1.63;;;19.20;52.90;;;;;;5054097;28;20036;-62
2022/06/01 11:36:47;;;;;;;4.88;1.85;;;19.00;53.30;;;;;;5044302;28;20040;-63
2022/06/01 11:39:46;;;;;;;4.20;2.22;;;18.90;54.40;;;;;;5054316;28;20044;-62
2022/06/01 11:42:19;;;;;;;4.82;2.10;;;19.10;54.00;;;;;;5054349;28;20049;-63
2022/06/01 11:45:06;;;;;;;5.28;2.47;;;19.30;53.90;;;;;;5054143;28;20072;-63
2022/06/01 11:47:52;;;;;;;5.63;2.35;;;19.30;54.10;;;;;;5048407;28;20365;-63
2022/06/01 11:50:43;;;;;;;5.47;2.70;;;19.20;54.70;;;;;;5034615;28;20029;-63
2022/06/01 11:53:13;;;;;;;5.30;2.67;;;19.10;55.00;;;;;;5043837;28;20033;-62
2022/06/01 11:55:38;;;;;;;5.15;2.67;;;19.20;55.20;;;;;;5050605;28;20454;-62
2022/06/01 11:58:06;;;;;;;5.45;2.53;;;19.40;55.10;;;;;;5051198;28;20078;-64
2022/06/01 12:00:51;;;;;;;6.80;3.03;;;19.70;55.00;;;;;;5052867;28;20360;-63
2022/06/01 12:03:17;;;;;;;5.95;2.97;;;19.90;54.80;;;;;;5054155;28;20037;-63
2022/06/01 12:06:02;;;;;;;6.90;2.85;;;20.00;54.80;;;;;;5050631;28;20099;-63
2022/06/01 12:08:53;;;;;;;5.22;2.85;;;20.10;54.90;;;;;;5045371;28;20485;-64
2022/06/01 12:11:40;;;;;;;4.53;2.47;;;20.10;54.90;;;;;;5053173;28;20082;-63
2022/06/01 12:14:31;;;;;;;6.45;2.90;;;20.10;54.90;;;;;;5057496;28;20028;-63
2022/06/01 12:17:17;;;;;;;5.97;2.90;;;20.10;54.90;;;;;;5046991;28;20043;-65
2022/06/01 12:19:45;;;;;;;5.85;2.60;;;20.10;54.90;;;;;;5044076;28;20429;-63
2022/06/01 12:31:12;;;;;;;6.70;3.05;;;19.80;55.60;;;;;;5044664;28;20079;-64
2022/06/01 12:34:01;;;;;;;6.82;2.80;;;19.80;55.30;;;;;;5038042;28;20037;-64
2022/06/01 12:36:54;;;;;;;4.13;2.00;;;20.00;55.20;;;;;;4987089;28;20034;-64
2022/06/01 12:39:34;;;;;;;3.88;1.60;;;20.00;54.10;;;;;;4999895;28;20125;-64
2022/06/01 12:42:17;;;;;;;3.55;1.40;;;20.00;53.00;;;;;;4989199;28;20125;-63
2022/06/01 12:44:47;;;;;;;3.17;1.20;;;20.00;52.50;;;;;;4987589;28;20022;-63
2022/06/01 12:47:30;;;;;;;2.30;1.13;;;19.90;52.20;;;;;;5005374;28;20049;-63
2022/06/01 12:50:04;;;;;;;2.78;1.10;;;19.90;51.90;;;;;;4992883;28;20038;-63
2022/06/01 12:52:31;;;;;;;2.22;1.05;;;19.90;51.30;;;;;;5006077;28;20040;-64
2022/06/01 12:55:00;;;;;;;1.38;1.00;;;19.90;50.90;;;;;;5008785;28;20079;-63
2022/06/01 12:57:37;;;;;;;1.17;0.60;;;20.00;50.00;;;;;;5006444;28;20026;-63
2022/06/01 13:00:03;;;;;;;3.47;1.00;;;20.00;49.50;;;;;;4992430;28;20593;-63
2022/06/01 13:02:33;;;;;;;1.70;1.08;;;20.10;49.00;;;;;;5007363;28;20030;-63
2022/06/01 13:05:03;;;;;;;2.63;1.15;;;20.00;48.10;;;;;;5008821;28;20037;-64
2022/06/01 13:07:36;;;;;;;2.42;1.08;;;20.00;48.00;;;;;;5006665;28;20532;-64
2022/06/01 13:10:07;;;;;;;2.75;1.17;;;20.10;48.20;;;;;;5007473;28;20046;-63
2022/06/01 13:12:33;;;;;;;2.42;1.10;;;20.10;48.30;;;;;;4992795;28;20049;-63
2022/06/01 13:15:07;;;;;;;1.58;0.88;;;20.10;48.20;;;;;;5041471;28;20112;-63
2022/06/01 13:17:33;;;;;;;2.20;1.00;;;20.10;48.30;;;;;;5040867;28;20032;-64
2022/06/01 13:20:01;;;;;;;2.92;1.40;;;20.10;48.40;;;;;;5049469;28;20330;-64
2022/06/01 13:22:37;;;;;;;2.22;1.00;;;20.10;47.90;;;;;;5047289;28;20028;-64
2022/06/01 13:25:13;;;;;;;2.03;1.20;;;20.10;47.80;;;;;;5046701;28;20020;-64
2022/06/01 13:27:40;;;;;;;2.60;1.27;;;20.10;47.80;;;;;;5040521;28;20033;-63
2022/06/01 13:30:07;;;;;;;1.58;1.00;;;20.00;47.60;;;;;;5044298;28;20100;-63
2022/06/01 13:32:43;;;;;;;3.40;1.20;;;19.90;47.90;;;;;;5037906;28;20354;-63
2022/06/01 13:35:33;;;;;;;2.13;1.08;;;19.90;47.90;;;;;;5043045;28;20033;-63
2022/06/01 13:38:00;;;;;;;2.85;1.15;;;19.90;48.20;;;;;;5042337;28;20040;-63